createdAt,value
2022-10-19T00:02:05.496Z,13.55
2022-10-19T00:06:58.292Z,9.20
2022-10-19T00:09:24.831Z,10.82
2022-10-19T00:11:52.521Z,7.43
2022-10-19T00:14:23.165Z,13.02
2022-10-19T00:16:51.345Z,14.50
2022-10-19T00:19:25.233Z,10.85
2022-10-19T00:21:51.977Z,11.25
2022-10-19T00:24:18.986Z,9.80
2022-10-19T00:26:45.794Z,8.45
2022-10-19T00:29:14.634Z,9.27
2022-10-19T00:31:41.579Z,9.98
2022-10-19T00:34:07.994Z,8.40
2022-10-19T00:36:37.983Z,8.88
2022-10-19T00:39:06.716Z,7.78
2022-10-19T00:41:35.807Z,8.48
2022-10-19T00:44:12.593Z,8.43
2022-10-19T00:46:44.543Z,8.07
2022-10-19T00:49:13.936Z,9.10
2022-10-19T00:51:43.976Z,6.35
2022-10-19T00:54:11.718Z,8.65
2022-10-19T00:56:40.788Z,12.23
2022-10-19T00:59:09.393Z,10.50
2022-10-19T01:01:36.381Z,14.02
2022-10-19T01:04:03.932Z,11.02
2022-10-19T01:06:31.106Z,11.48
2022-10-19T01:08:57.508Z,7.45
2022-10-19T01:11:36.696Z,7.43
2022-10-19T01:14:09.992Z,10.38
2022-10-19T01:16:42.412Z,16.35
2022-10-19T01:19:27.684Z,8.77
2022-10-19T01:22:14.000Z,7.65
2022-10-19T01:25:06.593Z,11.65
2022-10-19T01:27:53.017Z,10.25
2022-10-19T01:30:30.040Z,11.02
2022-10-19T01:35:39.324Z,10.05
2022-10-19T01:38:29.522Z,10.95
2022-10-19T01:41:20.366Z,9.30
2022-10-19T01:44:01.165Z,8.05
2022-10-19T01:46:36.269Z,20.23
2022-10-19T01:49:10.177Z,10.07
2022-10-19T01:51:43.789Z,10.23
2022-10-19T01:54:14.472Z,12.95
2022-10-19T01:56:43.921Z,11.23
2022-10-19T01:59:12.201Z,10.48
2022-10-19T02:01:43.881Z,9.52
2022-10-19T02:04:13.080Z,8.25
2022-10-19T02:06:40.192Z,10.65
2022-10-19T02:09:07.026Z,10.60
2022-10-19T02:11:35.484Z,9.05
2022-10-19T02:14:07.609Z,9.00
2022-10-19T02:16:40.564Z,10.15
2022-10-19T02:19:09.741Z,16.00
2022-10-19T02:21:36.310Z,7.30
2022-10-19T02:26:29.166Z,12.25
2022-10-19T02:28:56.287Z,9.30
2022-10-19T02:31:23.421Z,7.60
2022-10-19T02:33:49.982Z,10.75
2022-10-19T02:38:43.977Z,10.50
2022-10-19T02:41:14.370Z,10.45
2022-10-19T02:43:43.466Z,8.98
2022-10-19T02:46:23.788Z,12.40
2022-10-19T02:48:51.690Z,8.20
2022-10-19T02:51:32.570Z,10.07
2022-10-19T02:54:01.214Z,8.57
2022-10-19T02:56:30.783Z,10.13
2022-10-19T03:01:23.853Z,10.63
2022-10-19T03:03:50.388Z,11.32
2022-10-19T03:08:43.381Z,9.85
2022-10-19T03:11:10.053Z,11.88
2022-10-19T03:13:36.493Z,11.13
2022-10-19T03:16:07.581Z,11.20
2022-10-19T03:18:34.105Z,8.68
2022-10-19T03:21:09.378Z,19.48
2022-10-19T03:23:35.985Z,13.10
2022-10-19T03:28:29.609Z,8.50
2022-10-19T03:30:56.271Z,8.52
2022-10-19T03:33:23.492Z,7.22
2022-10-19T03:35:50.439Z,11.52
2022-10-19T03:38:17.346Z,8.38
2022-10-19T03:40:43.715Z,19.40
2022-10-19T03:43:10.197Z,8.35
2022-10-19T03:45:36.613Z,6.28
2022-10-19T03:48:03.120Z,8.68
2022-10-19T03:52:55.924Z,8.38
2022-10-19T03:55:22.399Z,8.13
2022-10-19T03:57:48.853Z,7.13
2022-10-19T04:00:15.699Z,12.60
2022-10-19T04:02:42.100Z,16.20
2022-10-19T04:05:08.698Z,16.02
2022-10-19T04:07:35.369Z,11.95
2022-10-19T04:10:01.899Z,10.93
2022-10-19T04:12:28.293Z,9.07
2022-10-19T04:14:58.008Z,10.45
2022-10-19T04:17:25.386Z,12.82
2022-10-19T04:19:51.789Z,10.43
2022-10-19T04:22:18.237Z,10.50
2022-10-19T04:24:44.620Z,16.52
2022-10-19T04:27:11.097Z,12.48
2022-10-19T04:29:37.586Z,13.05
2022-10-19T04:34:30.322Z,7.25
2022-10-19T04:36:59.270Z,8.38
2022-10-19T04:39:25.739Z,9.75
2022-10-19T04:43:15.048Z,12.25
2022-10-19T04:45:41.454Z,10.57
2022-10-19T04:48:07.896Z,10.82
2022-10-19T04:50:34.434Z,14.93
2022-10-19T04:55:27.296Z,46.95
2022-10-19T04:57:53.754Z,33.50
2022-10-19T05:00:20.168Z,28.85
2022-10-19T05:02:46.985Z,20.25
2022-10-19T05:05:14.661Z,24.58
2022-10-19T05:07:41.364Z,27.48
2022-10-19T05:10:08.908Z,23.45
2022-10-19T05:12:36.261Z,23.27
2022-10-19T05:15:03.785Z,21.30
2022-10-19T05:17:32.035Z,17.33
2022-10-19T05:19:58.806Z,13.57
2022-10-19T05:22:25.230Z,16.98
2022-10-19T05:24:54.537Z,20.83
2022-10-19T05:27:23.891Z,15.18
2022-10-19T05:29:50.275Z,13.70
2022-10-19T05:32:16.760Z,11.60
2022-10-19T05:34:43.327Z,11.45
2022-10-19T05:39:36.161Z,19.50
2022-10-19T05:42:02.609Z,40.95
2022-10-19T05:44:29.144Z,20.25
2022-10-19T05:49:22.529Z,22.40
2022-10-19T05:51:50.553Z,23.45
2022-10-19T05:54:17.137Z,25.48
2022-10-19T05:59:16.005Z,24.80
2022-10-19T06:01:42.560Z,22.65
2022-10-19T06:06:37.393Z,28.63
2022-10-19T06:09:04.026Z,52.25
2022-10-19T06:16:27.097Z,67.68
2022-10-19T06:18:54.096Z,101.28
2022-10-19T06:21:23.312Z,23.90
2022-10-19T06:23:51.613Z,83.22
2022-10-19T06:26:18.399Z,51.40
2022-10-19T06:28:45.403Z,19.83
2022-10-19T06:31:13.480Z,17.02
2022-10-19T06:33:41.014Z,61.33
2022-10-19T06:36:15.819Z,22.15
2022-10-19T06:38:43.397Z,55.53
2022-10-19T06:41:10.858Z,38.45
2022-10-19T06:43:37.439Z,75.72
2022-10-19T06:48:38.353Z,47.35
2022-10-19T06:51:09.112Z,28.17
2022-10-19T06:53:36.253Z,36.55
2022-10-19T06:56:05.784Z,39.05
2022-10-19T06:58:36.137Z,62.38
2022-10-19T07:01:04.592Z,39.53
2022-10-19T07:03:31.052Z,61.85
2022-10-19T07:06:02.124Z,50.00
2022-10-19T07:08:30.428Z,45.22
2022-10-19T07:11:00.186Z,24.02
2022-10-19T07:13:28.331Z,23.77
2022-10-19T07:16:01.132Z,22.70
2022-10-19T07:18:27.555Z,28.55
2022-10-19T07:20:58.937Z,38.10
2022-10-19T07:23:27.521Z,19.25
2022-10-19T07:26:01.420Z,36.92
2022-10-19T07:28:29.969Z,23.38
2022-10-19T07:30:56.673Z,30.15
2022-10-19T07:33:23.681Z,41.97
2022-10-19T07:35:50.200Z,69.07
2022-10-19T07:38:16.810Z,48.13
2022-10-19T07:40:46.403Z,20.08
2022-10-19T07:43:13.973Z,18.48
2022-10-19T07:45:40.347Z,12.88
2022-10-19T07:48:06.858Z,13.38
2022-10-19T07:52:59.621Z,17.08
2022-10-19T07:55:26.053Z,16.33
2022-10-19T07:57:52.466Z,12.48
2022-10-19T08:00:18.987Z,24.05
2022-10-19T08:05:34.946Z,23.08
2022-10-19T08:08:01.399Z,34.33
2022-10-19T08:10:28.284Z,57.28
2022-10-19T08:12:54.713Z,25.15
2022-10-19T08:15:21.186Z,52.30
2022-10-19T08:20:13.887Z,31.33
2022-10-19T08:22:41.787Z,55.08
2022-10-19T08:25:08.470Z,29.35
2022-10-19T08:30:06.722Z,36.42
2022-10-19T08:32:33.406Z,33.20
2022-10-19T08:34:59.935Z,28.27
2022-10-19T08:37:40.731Z,54.15
2022-10-19T08:40:25.855Z,18.95
2022-10-19T08:43:13.429Z,23.42
2022-10-19T08:45:50.806Z,30.88
2022-10-19T08:48:29.604Z,20.98
2022-10-19T08:50:58.216Z,26.83
2022-10-19T08:53:37.428Z,45.03
2022-10-19T08:56:45.630Z,20.30
2022-10-19T08:59:27.118Z,27.15
2022-10-19T09:02:01.502Z,20.35
2022-10-19T09:04:41.821Z,31.30
2022-10-19T09:07:34.625Z,27.27
2022-10-19T09:10:16.761Z,24.42
2022-10-19T09:12:58.768Z,23.92
2022-10-19T09:15:33.392Z,21.83
2022-10-19T09:18:02.053Z,21.75
2022-10-19T09:20:41.168Z,21.92
2022-10-19T09:23:24.785Z,27.83
2022-10-19T09:25:52.261Z,26.90
2022-10-19T09:28:36.490Z,24.70
2022-10-19T09:31:10.818Z,21.90
2022-10-19T09:33:39.500Z,22.02
2022-10-19T09:36:07.465Z,20.00
2022-10-19T09:38:34.022Z,20.95
2022-10-19T09:43:39.707Z,21.08
2022-10-19T09:46:20.297Z,22.70
2022-10-19T09:48:52.342Z,21.00
2022-10-19T09:51:20.796Z,22.45
2022-10-19T09:53:53.571Z,23.00
2022-10-19T09:56:25.733Z,21.77
2022-10-19T09:58:57.460Z,25.65
2022-10-19T10:01:43.082Z,24.52
2022-10-19T10:04:18.102Z,21.10
2022-10-19T10:06:48.144Z,20.92
2022-10-19T10:09:22.028Z,19.88
2022-10-19T10:11:50.508Z,22.25
2022-10-19T10:14:25.568Z,23.10
2022-10-19T10:16:57.189Z,20.17
2022-10-19T10:19:28.471Z,23.83
2022-10-19T10:21:56.432Z,24.25
2022-10-19T10:24:28.684Z,25.50
2022-10-19T10:27:00.925Z,24.80
2022-10-19T10:29:30.677Z,23.67
2022-10-19T10:32:01.275Z,22.75
2022-10-19T10:34:45.629Z,20.80
2022-10-19T10:37:28.221Z,20.73
2022-10-19T10:39:59.171Z,21.83
2022-10-19T10:42:50.270Z,19.38
2022-10-19T10:45:29.273Z,21.15
2022-10-19T10:47:56.953Z,21.45
2022-10-19T10:50:27.671Z,25.77
2022-10-19T10:53:02.742Z,21.17
2022-10-19T10:55:30.973Z,21.10
2022-10-19T10:58:09.284Z,20.90
2022-10-19T11:00:40.098Z,20.95
2022-10-19T11:03:28.755Z,19.63
2022-10-19T11:05:58.434Z,19.85
2022-10-19T11:08:33.532Z,21.10
2022-10-19T11:10:59.932Z,20.85
2022-10-19T11:13:36.242Z,20.77
2022-10-19T11:16:35.309Z,23.55
2022-10-19T11:19:21.783Z,20.90
2022-10-19T11:22:05.523Z,21.55
2022-10-19T11:24:48.682Z,20.23
2022-10-19T11:27:34.327Z,21.92
2022-10-19T11:30:21.945Z,20.02
2022-10-19T11:33:03.686Z,25.55
2022-10-19T11:35:52.821Z,19.52
2022-10-19T11:38:35.893Z,22.23
2022-10-19T11:41:30.664Z,22.10
2022-10-19T11:44:12.256Z,20.50
2022-10-19T11:47:07.986Z,19.83
2022-10-19T11:49:52.439Z,19.58
2022-10-19T11:52:34.973Z,20.85
2022-10-19T11:55:22.811Z,19.20
2022-10-19T12:00:44.370Z,21.33
2022-10-19T12:03:45.930Z,18.98
2022-10-19T12:06:35.991Z,21.27
2022-10-19T12:09:24.420Z,20.92
2022-10-19T12:12:23.693Z,20.48
2022-10-19T12:14:55.965Z,18.80
2022-10-19T12:17:30.495Z,21.30
2022-10-19T12:20:03.151Z,18.60
2022-10-19T12:22:31.241Z,19.17
2022-10-19T12:25:01.068Z,20.33
2022-10-19T12:27:35.716Z,23.77
2022-10-19T12:30:27.608Z,19.77
2022-10-19T12:33:17.760Z,21.70
2022-10-19T12:35:57.729Z,20.83
2022-10-19T12:39:00.628Z,20.48
2022-10-19T12:41:39.879Z,20.67
2022-10-19T12:44:35.564Z,22.05
2022-10-19T12:47:11.725Z,20.80
2022-10-19T12:49:45.643Z,22.70
2022-10-19T12:52:13.902Z,26.00
2022-10-19T12:54:43.189Z,22.40
2022-10-19T12:57:28.704Z,26.20
2022-10-19T13:00:01.260Z,28.60
2022-10-19T13:05:00.241Z,30.98
2022-10-19T13:07:29.818Z,31.38
2022-10-19T13:10:05.753Z,29.05
2022-10-19T13:12:44.603Z,29.88
2022-10-19T13:15:36.124Z,33.15
2022-10-19T13:18:14.079Z,29.13
2022-10-19T13:23:11.908Z,28.42
2022-10-19T13:28:11.100Z,27.52
2022-10-19T13:31:02.452Z,30.40
2022-10-19T13:33:44.145Z,27.98
2022-10-19T13:36:12.041Z,27.25
2022-10-19T13:38:50.616Z,35.95
2022-10-19T13:41:28.488Z,31.88
2022-10-19T13:44:03.850Z,31.33
2022-10-19T13:46:30.228Z,29.65
2022-10-19T13:49:20.505Z,29.52
2022-10-19T13:52:36.347Z,30.15
2022-10-19T13:55:11.681Z,32.63
2022-10-19T13:58:14.068Z,31.85
2022-10-19T14:01:09.052Z,33.22
2022-10-19T14:03:54.565Z,31.65
2022-10-19T14:06:36.242Z,32.28
2022-10-19T14:09:23.883Z,28.80
2022-10-19T14:14:20.184Z,32.00
2022-10-19T14:16:57.110Z,39.78
2022-10-19T14:19:30.496Z,33.88
2022-10-19T14:21:59.802Z,30.52
2022-10-19T14:24:35.281Z,31.38
2022-10-19T14:27:04.756Z,29.67
2022-10-19T14:29:42.602Z,36.88
2022-10-19T14:32:11.070Z,33.28
2022-10-19T14:34:43.367Z,33.50
2022-10-19T14:37:26.390Z,28.70
2022-10-19T14:40:04.849Z,27.67
2022-10-19T14:42:59.479Z,31.92
2022-10-19T14:45:28.906Z,29.83
2022-10-19T14:48:04.329Z,33.25
2022-10-19T14:50:44.899Z,27.42
2022-10-19T14:53:39.401Z,32.17
2022-10-19T14:56:12.036Z,33.10
2022-10-19T14:58:46.171Z,25.92
2022-10-19T15:01:12.905Z,29.40
2022-10-19T15:03:43.653Z,30.13
2022-10-19T15:06:19.121Z,27.55
2022-10-19T15:08:50.897Z,27.23
2022-10-19T15:11:30.128Z,28.25
2022-10-19T15:13:58.945Z,26.80
2022-10-19T15:16:51.691Z,26.08
2022-10-19T15:19:31.976Z,26.08
2022-10-19T15:22:19.858Z,30.00
2022-10-19T15:25:07.499Z,29.75
2022-10-19T15:30:26.250Z,32.65
2022-10-19T15:33:10.430Z,33.58
2022-10-19T15:35:39.369Z,28.80
2022-10-19T15:38:20.468Z,28.83
2022-10-19T15:40:48.190Z,28.65
2022-10-19T15:43:37.841Z,31.70
2022-10-19T15:46:07.136Z,29.60
2022-10-19T15:48:48.112Z,27.15
2022-10-19T15:51:25.578Z,30.48
2022-10-19T15:53:56.070Z,24.67
2022-10-19T15:56:25.297Z,24.17
2022-10-19T15:58:54.306Z,28.33
2022-10-19T16:01:23.459Z,27.23
2022-10-19T16:03:50.306Z,25.92
2022-10-19T16:06:18.128Z,28.42
2022-10-19T16:08:48.083Z,25.65
2022-10-19T16:11:16.965Z,27.80
2022-10-19T16:13:43.771Z,26.42
2022-10-19T16:16:14.692Z,26.08
2022-10-19T16:18:41.338Z,30.10
2022-10-19T16:23:39.301Z,26.10
2022-10-19T16:26:08.397Z,20.25
2022-10-19T16:28:34.809Z,24.25
2022-10-19T16:31:01.336Z,21.70
2022-10-19T16:35:54.190Z,22.13
2022-10-19T16:40:47.050Z,27.88
2022-10-19T16:45:43.506Z,26.55
2022-10-19T16:48:12.736Z,29.17
2022-10-19T16:50:39.641Z,24.85
2022-10-19T16:55:37.655Z,23.33
2022-10-19T16:58:04.092Z,20.38
2022-10-19T17:02:57.087Z,24.85
2022-10-19T17:07:50.140Z,22.42
2022-10-19T17:12:43.237Z,20.42
2022-10-19T17:15:40.995Z,21.10
2022-10-19T17:17:57.954Z,21.63
2022-10-19T17:20:24.420Z,24.08
2022-10-19T17:25:20.400Z,21.30
2022-10-19T17:30:16.843Z,21.10
2022-10-19T17:32:43.256Z,23.95
2022-10-19T17:35:10.180Z,23.77
2022-10-19T17:37:36.936Z,22.15
2022-10-19T17:40:04.020Z,22.67
2022-10-19T17:42:33.836Z,23.65
2022-10-19T17:45:00.420Z,23.40
2022-10-19T17:47:26.864Z,24.13
2022-10-19T17:52:19.694Z,28.42
2022-10-19T17:55:00.563Z,24.65
2022-10-19T17:57:35.489Z,22.83
2022-10-19T18:00:02.237Z,34.13
2022-10-19T18:02:39.805Z,23.75
2022-10-19T18:05:06.576Z,21.60
2022-10-19T18:07:34.944Z,22.80
2022-10-19T18:10:01.972Z,21.35
2022-10-19T18:12:28.459Z,23.42
2022-10-19T18:17:24.113Z,22.00
2022-10-19T18:19:53.571Z,25.75
2022-10-19T18:24:49.488Z,19.80
2022-10-19T18:27:16.248Z,19.48
2022-10-19T18:29:42.883Z,16.35
2022-10-19T18:32:09.360Z,18.85
2022-10-19T18:37:02.290Z,18.48
2022-10-19T18:41:55.400Z,17.08
2022-10-19T18:44:26.405Z,19.58
2022-10-19T18:46:55.479Z,18.15
2022-10-19T18:49:22.115Z,20.73
2022-10-19T18:51:54.070Z,21.45
2022-10-19T18:54:22.588Z,23.85
2022-10-19T18:56:49.440Z,26.92
2022-10-19T18:59:16.327Z,26.98
2022-10-19T19:01:42.906Z,24.58
2022-10-19T19:04:10.181Z,21.02
2022-10-19T19:06:38.501Z,23.70
2022-10-19T19:09:09.250Z,24.38
2022-10-19T19:11:38.501Z,22.85
2022-10-19T19:14:13.217Z,24.60
2022-10-19T19:16:42.030Z,25.95
2022-10-19T19:19:09.975Z,25.50
2022-10-19T19:21:36.590Z,23.77
2022-10-19T19:24:05.963Z,26.02
2022-10-19T19:26:36.840Z,24.52
2022-10-19T19:29:03.756Z,23.88
2022-10-19T19:31:30.244Z,23.95
2022-10-19T19:36:25.673Z,19.45
2022-10-19T19:41:20.727Z,26.33
2022-10-19T19:43:47.484Z,24.73
2022-10-19T19:46:16.652Z,25.63
2022-10-19T19:48:45.487Z,25.10
2022-10-19T19:51:15.100Z,23.30
2022-10-19T19:53:42.293Z,25.58
2022-10-19T19:56:10.706Z,21.35
2022-10-19T19:58:37.500Z,23.23
2022-10-19T20:01:19.028Z,19.95
2022-10-19T20:03:46.587Z,21.40
2022-10-19T20:06:15.003Z,21.98
2022-10-19T20:08:41.701Z,19.58
2022-10-19T20:11:10.643Z,23.60
2022-10-19T20:13:37.854Z,16.73
2022-10-19T20:16:09.073Z,22.48
2022-10-19T20:18:35.523Z,20.60
2022-10-19T20:21:02.837Z,21.02
2022-10-19T20:23:29.953Z,18.27
2022-10-19T20:25:56.682Z,19.92
2022-10-19T20:28:24.639Z,18.95
2022-10-19T20:31:04.852Z,19.33
2022-10-19T20:33:33.532Z,19.05
2022-10-19T20:36:08.703Z,20.42
2022-10-19T20:38:38.425Z,20.83
2022-10-19T20:41:08.226Z,21.58
2022-10-19T20:43:38.595Z,20.55
2022-10-19T20:46:12.065Z,19.48
2022-10-19T20:48:40.170Z,26.23
2022-10-19T20:51:15.731Z,21.45
2022-10-19T20:53:46.193Z,23.63
2022-10-19T20:56:14.394Z,23.42
2022-10-19T20:58:43.269Z,24.27
2022-10-19T21:01:13.581Z,23.67
2022-10-19T21:03:44.844Z,22.23
2022-10-19T21:06:11.264Z,24.88
2022-10-19T21:08:37.701Z,25.35
2022-10-19T21:13:54.491Z,22.98
2022-10-19T21:16:22.605Z,22.33
2022-10-19T21:18:49.927Z,20.60
2022-10-19T21:21:27.444Z,23.55
2022-10-19T21:23:56.837Z,26.55
2022-10-19T21:26:27.678Z,23.48
2022-10-19T21:28:55.029Z,27.80
2022-10-19T21:31:23.885Z,19.48
2022-10-19T21:33:51.718Z,22.85
2022-10-19T21:36:19.698Z,22.00
2022-10-19T21:38:46.840Z,19.73
2022-10-19T21:41:20.963Z,16.50
2022-10-19T21:46:18.997Z,18.92
2022-10-19T21:48:46.098Z,19.88
2022-10-19T21:51:28.551Z,21.30
2022-10-19T21:53:54.988Z,23.48
2022-10-19T21:56:21.411Z,22.38
2022-10-19T21:58:52.676Z,17.30
2022-10-19T22:01:21.647Z,19.70
2022-10-19T22:03:48.234Z,19.63
2022-10-19T22:08:45.090Z,23.42
2022-10-19T22:11:13.481Z,21.00
2022-10-19T22:13:40.403Z,24.88
2022-10-19T22:16:13.374Z,19.75
2022-10-19T22:18:39.874Z,18.05
2022-10-19T22:21:09.337Z,17.23
2022-10-19T22:23:35.814Z,24.92
2022-10-19T22:26:02.186Z,20.95
2022-10-19T22:28:28.906Z,20.95
2022-10-19T22:30:57.334Z,26.05
2022-10-19T22:33:25.163Z,19.05
2022-10-19T22:35:59.922Z,19.67
2022-10-19T22:38:28.299Z,18.95
2022-10-19T22:40:54.713Z,17.25
2022-10-19T22:43:21.143Z,17.80
2022-10-19T22:45:48.651Z,19.30
2022-10-19T22:48:16.480Z,17.92
2022-10-19T22:50:43.135Z,19.80
2022-10-19T22:53:09.700Z,18.83
2022-10-19T22:58:04.495Z,17.67
2022-10-19T23:00:31.428Z,19.83
2022-10-19T23:02:58.025Z,18.83
2022-10-19T23:07:50.783Z,16.58
2022-10-19T23:10:17.358Z,18.30
2022-10-19T23:12:43.834Z,18.98
2022-10-19T23:15:10.546Z,16.42
2022-10-19T23:17:37.391Z,16.75
2022-10-19T23:20:04.465Z,19.20
2022-10-19T23:22:30.887Z,18.65
2022-10-19T23:24:57.249Z,15.50
2022-10-19T23:27:23.707Z,19.23
2022-10-19T23:29:50.129Z,23.33
2022-10-19T23:32:16.532Z,23.20
2022-10-19T23:34:44.613Z,16.27
2022-10-19T23:37:13.877Z,15.68
2022-10-19T23:39:40.337Z,18.52
2022-10-19T23:44:35.417Z,16.92
2022-10-19T23:47:01.807Z,18.08
2022-10-19T23:49:28.218Z,17.65
2022-10-19T23:51:54.710Z,19.27
2022-10-19T23:54:23.593Z,16.98
2022-10-19T23:56:49.995Z,16.60
2022-10-19T23:59:16.392Z,14.75
